Time;durP1;ratioP1;P1;durP2;ratioP2;P2;SDS_P1;SDS_P2;PMS_P1;PMS_P2;Temp;Humidity;BMP_temperature;BMP_pressure;BME280_temperature;BME280_humidity;BME280_pressure;Samples;Min_cycle;Max_cycle;Signal;HPM_P1;HPM_P2
2023/11/11 00:01:30;;;;;;;;;;;;;;;;;;10523058;27;20059;-72
2023/11/11 00:06:33;;;;;;;0.93;0.47;;;;;;;;;;10532879;27;19927;-72
2023/11/11 00:11:37;;;;;;;4.68;1.48;;;;;;;;;;10538016;28;22272;-71
2023/11/11 00:16:40;;;;;;;4.82;1.20;;;;;;;;;;10536058;28;20542;-72
2023/11/11 00:21:49;;;;;;;2.63;0.65;;;;;;;;;;10532918;28;20135;-71
2023/11/11 00:26:56;;;;;;;1.45;0.73;;;;;;;;;;10530361;27;20098;-72
2023/11/11 00:31:59;;;;;;;1.80;0.70;;;;;;;;;;10532246;28;20586;-70
2023/11/11 00:37:01;;;;;;;1.98;1.17;;;;;;;;;;10538831;27;20038;-72
2023/11/11 00:42:07;;;;;;;1.95;1.08;;;;;;;;;;10531202;27;20052;-72
2023/11/11 00:47:10;;;;;;;5.03;0.85;;;;;;;;;;10533455;27;20042;-72
2023/11/11 00:52:13;;;;;;;0.52;0.40;;;;;;;;;;10534025;27;20298;-71
2023/11/11 00:57:18;;;;;;;1.50;0.90;;;;;;;;;;10537536;27;20065;-71
2023/11/11 01:02:21;;;;;;;0.75;0.50;;;;;;;;;;10533233;27;20043;-70
2023/11/11 01:07:30;;;;;;;0.93;0.52;;;;;;;;;;10537001;28;20104;-72
2023/11/11 01:12:34;;;;;;;2.80;1.30;;;;;;;;;;10533432;28;20215;-72
2023/11/11 01:17:37;;;;;;;;;;;;;;;;;;10530443;28;20485;-71
2023/11/11 01:22:40;;;;;;;0.73;0.70;;;;;;;;;;10534179;28;19926;-71
2023/11/11 01:27:44;;;;;;;1.42;1.05;;;;;;;;;;10536917;28;20032;-72
2023/11/11 01:32:46;;;;;;;1.60;1.00;;;;;;;;;;10530493;28;20082;-70
2023/11/11 01:37:49;;;;;;;1.52;1.00;;;;;;;;;;10533524;28;20221;-70
2023/11/11 01:42:53;;;;;;;1.52;0.57;;;;;;;;;;10534690;28;20044;-71
2023/11/11 01:47:56;;;;;;;1.92;0.80;;;;;;;;;;10531192;28;20040;-71
2023/11/11 01:52:59;;;;;;;1.27;0.93;;;;;;;;;;10532223;28;20075;-73
2023/11/11 01:58:04;;;;;;;0.63;0.40;;;;;;;;;;10537588;28;20047;-73
2023/11/11 02:03:08;;;;;;;1.27;0.55;;;;;;;;;;10535568;28;20047;-71
2023/11/11 02:08:11;;;;;;;1.17;0.60;;;;;;;;;;10535698;28;20032;-74
2023/11/11 02:13:15;;;;;;;1.55;0.32;;;;;;;;;;10538341;28;20079;-74
2023/11/11 02:18:18;;;;;;;;;;;;;;;;;;10534900;28;20478;-74
2023/11/11 02:23:21;;;;;;;1.27;0.70;;;;;;;;;;10540483;27;19926;-74
2023/11/11 02:28:25;;;;;;;0.30;0.30;;;;;;;;;;10537656;27;20485;-73
2023/11/11 02:33:28;;;;;;;0.98;0.40;;;;;;;;;;10538355;27;20253;-74
2023/11/11 02:38:31;;;;;;;1.27;0.32;;;;;;;;;;10541150;28;20112;-74
2023/11/11 02:43:35;;;;;;;0.20;0.20;;;;;;;;;;10546693;27;20031;-72
2023/11/11 02:48:38;;;;;;;;;;;;;;;;;;10546376;27;20051;-73
2023/11/11 02:53:41;;;;;;;0.60;0.40;;;;;;;;;;10544103;27;20273;-73
2023/11/11 02:58:44;;;;;;;0.10;0.10;;;;;;;;;;10545111;27;20151;-71
2023/11/11 03:03:49;;;;;;;0.10;0.10;;;;;;;;;;10542125;27;20036;-73
2023/11/11 03:08:52;;;;;;;0.70;0.30;;;;;;;;;;10538790;27;20116;-74
2023/11/11 03:13:56;;;;;;;0.00;0.00;;;;;;;;;;10536365;28;20055;-72
2023/11/11 03:18:59;;;;;;;0.55;0.30;;;;;;;;;;10538857;27;20039;-74
2023/11/11 03:24:02;;;;;;;0.30;0.13;;;;;;;;;;10540629;27;20464;-71
2023/11/11 03:29:06;;;;;;;0.33;0.10;;;;;;;;;;10541564;27;20138;-72
2023/11/11 03:34:09;;;;;;;1.45;0.20;;;;;;;;;;10535116;27;20196;-71
2023/11/11 03:39:11;;;;;;;0.45;0.28;;;;;;;;;;10533482;28;20374;-73
2023/11/11 03:44:15;;;;;;;0.20;0.20;;;;;;;;;;10537218;27;20549;-72
2023/11/11 03:49:21;;;;;;;0.65;0.20;;;;;;;;;;10536226;28;20201;-72
2023/11/11 03:54:23;;;;;;;0.08;0.08;;;;;;;;;;10533081;27;20139;-72
2023/11/11 03:59:28;;;;;;;0.47;0.30;;;;;;;;;;10538142;28;20051;-72
2023/11/11 04:04:32;;;;;;;0.38;0.30;;;;;;;;;;10533228;28;20374;-71
2023/11/11 04:09:35;;;;;;;0.28;0.22;;;;;;;;;;10535914;28;20119;-72
2023/11/11 04:14:39;;;;;;;0.20;0.20;;;;;;;;;;10533857;28;20040;-71
2023/11/11 04:19:42;;;;;;;0.40;0.10;;;;;;;;;;10533253;28;20071;-71
2023/11/11 04:24:45;;;;;;;0.20;0.20;;;;;;;;;;10532232;28;20138;-71
2023/11/11 04:29:49;;;;;;;0.30;0.30;;;;;;;;;;10533914;28;20507;-72
2023/11/11 04:34:52;;;;;;;0.32;0.30;;;;;;;;;;10530316;28;20044;-71
2023/11/11 04:39:57;;;;;;;0.30;0.30;;;;;;;;;;10538234;27;20200;-71
2023/11/11 04:45:01;;;;;;;0.15;0.10;;;;;;;;;;10531923;28;20044;-72
2023/11/11 04:50:05;;;;;;;0.30;0.30;;;;;;;;;;10538988;27;20400;-71
2023/11/11 04:55:09;;;;;;;0.20;0.20;;;;;;;;;;10534305;28;20491;-74
2023/11/11 05:00:14;;;;;;;0.50;0.20;;;;;;;;;;10535297;27;20405;-74
2023/11/11 05:05:20;;;;;;;0.35;0.30;;;;;;;;;;10534658;27;20408;-71
2023/11/11 05:10:23;;;;;;;0.63;0.25;;;;;;;;;;10536164;28;20633;-70
2023/11/11 05:15:27;;;;;;;0.35;0.30;;;;;;;;;;10536686;28;20056;-71
2023/11/11 05:20:31;;;;;;;0.28;0.28;;;;;;;;;;10532945;28;20041;-75
2023/11/11 05:25:33;;;;;;;0.20;0.20;;;;;;;;;;10516273;28;20063;-72
2023/11/11 05:30:37;;;;;;;0.30;0.20;;;;;;;;;;10545088;28;20040;-73
2023/11/11 05:35:40;;;;;;;0.22;0.20;;;;;;;;;;10539100;28;20461;-70
2023/11/11 05:40:43;;;;;;;0.55;0.32;;;;;;;;;;10545086;27;20438;-71
2023/11/11 05:45:51;;;;;;;0.77;0.50;;;;;;;;;;10552843;27;20165;-72
2023/11/11 05:50:54;;;;;;;1.02;0.60;;;;;;;;;;10538080;27;20125;-71
2023/11/11 05:55:56;;;;;;;2.25;0.68;;;;;;;;;;10525013;27;20052;-70
2023/11/11 06:01:01;;;;;;;0.68;0.65;;;;;;;;;;10545105;27;20138;-72
2023/11/11 06:06:05;;;;;;;1.27;0.75;;;;;;;;;;10541822;28;20456;-71
2023/11/11 06:11:09;;;;;;;2.30;0.75;;;;;;;;;;10542731;27;20046;-71
2023/11/11 06:16:12;;;;;;;2.43;0.70;;;;;;;;;;10536535;28;20070;-71
2023/11/11 06:21:15;;;;;;;;;;;;;;;;;;10540077;27;20047;-73
2023/11/11 06:26:18;;;;;;;3.53;1.15;;;;;;;;;;10543376;28;20296;-72
2023/11/11 06:31:23;;;;;;;2.25;0.70;;;;;;;;;;10537607;27;20148;-73
2023/11/11 06:36:30;;;;;;;0.75;0.73;;;;;;;;;;10540494;27;20063;-72
2023/11/11 06:41:36;;;;;;;2.65;1.10;;;;;;;;;;10539036;28;20512;-73
2023/11/11 06:46:42;;;;;;;1.70;0.82;;;;;;;;;;10517727;28;20046;-71
2023/11/11 06:51:45;;;;;;;1.27;0.77;;;;;;;;;;10539872;27;20032;-72
2023/11/11 06:56:47;;;;;;;1.88;0.80;;;;;;;;;;10542308;27;21729;-74
2023/11/11 07:01:51;;;;;;;1.85;0.90;;;;;;;;;;10541416;28;20121;-72
2023/11/11 07:06:54;;;;;;;2.33;1.20;;;;;;;;;;10534421;28;20093;-71
2023/11/11 07:11:57;;;;;;;0.95;0.80;;;;;;;;;;10536701;27;20462;-72
2023/11/11 07:17:02;;;;;;;0.80;0.70;;;;;;;;;;10539121;28;20539;-71
2023/11/11 07:22:04;;;;;;;0.68;0.52;;;;;;;;;;10537729;28;20131;-71
2023/11/11 07:27:10;;;;;;;1.58;0.80;;;;;;;;;;10518884;27;20048;-72
2023/11/11 07:32:14;;;;;;;3.60;0.95;;;;;;;;;;10533707;27;20044;-74
2023/11/11 07:37:17;;;;;;;;;;;;;;;;;;10533609;27;20134;-71
2023/11/11 07:42:20;;;;;;;1.27;0.77;;;;;;;;;;10535703;28;19954;-73
2023/11/11 07:47:24;;;;;;;2.10;1.10;;;;;;;;;;10540465;28;20047;-71
2023/11/11 07:52:27;;;;;;;1.80;1.10;;;;;;;;;;10533641;28;20393;-71
2023/11/11 07:57:33;;;;;;;1.20;0.70;;;;;;;;;;10532248;27;20058;-72
2023/11/11 08:02:39;;;;;;;1.33;1.00;;;;;;;;;;10536619;27;20439;-73
2023/11/11 08:07:42;;;;;;;;;;;;;;;;;;10514969;28;20074;-70
2023/11/11 08:12:47;;;;;;;1.77;0.85;;;;;;;;;;10539251;28;19930;-74
2023/11/11 08:17:51;;;;;;;1.45;1.10;;;;;;;;;;10541702;27;20055;-71
2023/11/11 08:22:55;;;;;;;4.93;1.13;;;;;;;;;;10537330;27;20050;-73
2023/11/11 08:27:58;;;;;;;;;;;;;;;;;;10543162;28;20119;-74
2023/11/11 08:33:03;;;;;;;0.82;0.70;;;;;;;;;;10523879;28;19926;-73
2023/11/11 08:38:06;;;;;;;1.27;0.98;;;;;;;;;;10533174;27;20044;-71
2023/11/11 08:43:09;;;;;;;2.45;1.30;;;;;;;;;;10530087;28;20048;-74
2023/11/11 08:48:15;;;;;;;1.88;0.77;;;;;;;;;;10529358;27;20927;-74
2023/11/11 08:53:17;;;;;;;2.25;1.08;;;;;;;;;;10534766;27;20047;-74
2023/11/11 08:58:20;;;;;;;1.80;0.82;;;;;;;;;;10529592;28;20528;-74
2023/11/11 09:03:24;;;;;;;1.38;0.63;;;;;;;;;;10512409;28;20048;-77
2023/11/11 09:08:27;;;;;;;;;;;;;;;;;;10530330;27;20159;-73
2023/11/11 09:13:29;;;;;;;1.10;0.80;;;;;;;;;;10523352;28;20304;-75
2023/11/11 09:18:33;;;;;;;1.98;0.80;;;;;;;;;;10534974;28;20105;-75
2023/11/11 09:23:41;;;;;;;1.42;0.90;;;;;;;;;;10531574;27;20040;-75
2023/11/11 09:28:44;;;;;;;1.67;1.13;;;;;;;;;;10525742;28;20048;-76
2023/11/11 09:33:48;;;;;;;1.98;1.48;;;;;;;;;;10529793;28;20047;-75
2023/11/11 09:38:51;;;;;;;1.88;1.60;;;;;;;;;;10528272;28;20043;-76
2023/11/11 09:43:53;;;;;;;3.80;2.43;;;;;;;;;;10532773;28;20135;-75
2023/11/11 09:48:58;;;;;;;2.13;0.90;;;;;;;;;;10545200;28;20549;-75
2023/11/11 09:54:05;;;;;;;0.90;0.90;;;;;;;;;;10551617;28;20747;-75
2023/11/11 09:59:07;;;;;;;2.10;1.50;;;;;;;;;;10551881;28;20131;-76
2023/11/11 10:04:13;;;;;;;2.00;1.90;;;;;;;;;;10547085;28;20048;-76
2023/11/11 10:09:20;;;;;;;1.15;1.05;;;;;;;;;;10558706;28;20658;-76
2023/11/11 10:14:24;;;;;;;1.88;0.88;;;;;;;;;;10561095;28;20066;-75
2023/11/11 10:19:28;;;;;;;2.15;1.20;;;;;;;;;;10560905;28;20231;-75
2023/11/11 10:24:31;;;;;;;3.47;1.08;;;;;;;;;;10559184;28;20143;-76
2023/11/11 10:29:46;;;;;;;;;;;;;;;;;;;;;
2023/11/11 10:34:50;;;;;;;2.25;0.82;;;;;;;;;;10550936;28;20039;-74
2023/11/11 10:39:53;;;;;;;0.93;0.60;;;;;;;;;;10564821;27;20093;-74
2023/11/11 10:44:57;;;;;;;1.00;0.70;;;;;;;;;;10564392;27;20050;-74
2023/11/11 10:50:02;;;;;;;3.95;1.17;;;;;;;;;;10557580;28;20040;-73
2023/11/11 10:55:07;;;;;;;1.50;1.08;;;;;;;;;;10551717;27;20077;-73
2023/11/11 11:00:20;;;;;;;1.23;1.00;;;;;;;;;;10558025;27;20543;-72
2023/11/11 11:05:30;;;;;;;2.22;0.82;;;;;;;;;;10555216;27;20116;-73
2023/11/11 11:10:39;;;;;;;1.00;0.70;;;;;;;;;;10558389;27;20093;-72
2023/11/11 11:15:47;;;;;;;1.30;0.90;;;;;;;;;;10554872;27;20059;-71
2023/11/11 11:20:58;;;;;;;1.90;1.10;;;;;;;;;;10579656;27;20517;-71
2023/11/11 11:26:03;;;;;;;2.08;0.77;;;;;;;;;;10563076;27;20566;-71
2023/11/11 11:31:06;;;;;;;3.20;1.10;;;;;;;;;;10567905;27;20094;-73
2023/11/11 11:41:45;;;;;;;1.63;1.10;;;;;;;;;;10557998;27;20108;-72
2023/11/11 11:46:50;;;;;;;3.58;0.90;;;;;;;;;;10554869;28;20055;-73
2023/11/11 11:51:58;;;;;;;7.45;1.30;;;;;;;;;;10559438;28;20058;-73
2023/11/11 11:57:08;;;;;;;1.52;1.15;;;;;;;;;;10564190;27;20584;-74
2023/11/11 12:02:32;;;;;;;1.67;1.10;;;;;;;;;;10560367;27;20035;-74
2023/11/11 12:07:39;;;;;;;1.45;1.00;;;;;;;;;;10550460;27;20487;-73
2023/11/11 12:12:47;;;;;;;1.52;1.40;;;;;;;;;;10563154;28;20443;-73
2023/11/11 12:18:09;;;;;;;1.30;0.90;;;;;;;;;;10547402;27;20464;-74
2023/11/11 12:23:18;;;;;;;2.80;1.10;;;;;;;;;;10525270;27;20071;-74
2023/11/11 12:28:22;;;;;;;1.40;1.25;;;;;;;;;;10563915;27;20505;-74
2023/11/11 12:33:32;;;;;;;1.90;1.30;;;;;;;;;;10536790;28;20044;-74
2023/11/11 12:38:37;;;;;;;3.33;1.38;;;;;;;;;;10549706;27;20044;-73
2023/11/11 12:43:42;;;;;;;1.98;1.25;;;;;;;;;;10563576;27;20126;-74
2023/11/11 12:48:46;;;;;;;1.52;0.80;;;;;;;;;;10550514;28;20055;-74
2023/11/11 12:53:59;;;;;;;3.30;1.92;;;;;;;;;;10562389;27;20060;-74
2023/11/11 12:59:08;;;;;;;3.40;1.25;;;;;;;;;;10530699;28;20042;-74
2023/11/11 13:04:17;;;;;;;0.60;0.60;;;;;;;;;;10546652;28;20044;-73
2023/11/11 13:09:39;;;;;;;1.70;1.10;;;;;;;;;;10548252;27;20524;-73
2023/11/11 13:14:43;;;;;;;1.60;0.85;;;;;;;;;;10563299;27;20050;-75
2023/11/11 13:19:50;;;;;;;;;;;;;;;;;;10535824;28;20040;-75
2023/11/11 13:25:03;;;;;;;3.83;1.30;;;;;;;;;;10540838;28;19931;-75
2023/11/11 13:30:11;;;;;;;2.25;1.10;;;;;;;;;;10552028;28;20047;-75
2023/11/11 13:35:20;;;;;;;1.52;1.13;;;;;;;;;;10532974;28;20680;-76
2023/11/11 13:40:33;;;;;;;3.28;1.30;;;;;;;;;;10551985;28;20044;-75
2023/11/11 13:45:46;;;;;;;2.30;1.35;;;;;;;;;;10523782;28;20048;-74
2023/11/11 13:50:50;;;;;;;1.10;1.00;;;;;;;;;;10562969;27;20040;-75
2023/11/11 13:56:01;;;;;;;1.48;1.00;;;;;;;;;;10569940;27;20070;-74
2023/11/11 14:01:07;;;;;;;1.33;0.90;;;;;;;;;;10524339;27;20093;-73
2023/11/11 14:06:13;;;;;;;2.28;1.15;;;;;;;;;;10546456;27;20068;-74
2023/11/11 14:11:17;;;;;;;1.02;0.93;;;;;;;;;;10572124;27;20626;-74
2023/11/11 14:16:23;;;;;;;2.20;1.35;;;;;;;;;;10539778;27;20049;-74
2023/11/11 14:21:32;;;;;;;1.77;1.30;;;;;;;;;;10573773;27;20035;-74
2023/11/11 14:26:46;;;;;;;1.90;1.27;;;;;;;;;;10549698;27;20067;-75
2023/11/11 14:31:51;;;;;;;2.50;1.15;;;;;;;;;;10559923;27;20039;-75
2023/11/11 14:36:58;;;;;;;3.13;1.40;;;;;;;;;;10543543;27;20530;-74
2023/11/11 14:42:08;;;;;;;2.78;1.50;;;;;;;;;;10542385;28;20074;-75
2023/11/11 14:47:12;;;;;;;2.33;1.40;;;;;;;;;;10559996;27;20505;-76
2023/11/11 14:52:18;;;;;;;3.65;1.50;;;;;;;;;;10539955;27;20040;-74
2023/11/11 14:57:24;;;;;;;4.25;1.35;;;;;;;;;;10559428;27;20061;-73
2023/11/11 15:02:31;;;;;;;2.05;1.23;;;;;;;;;;10541081;27;20051;-75
2023/11/11 15:07:38;;;;;;;3.60;1.30;;;;;;;;;;10549196;28;20043;-75
2023/11/11 15:12:48;;;;;;;2.38;1.35;;;;;;;;;;10560823;27;20531;-75
2023/11/11 15:17:55;;;;;;;3.10;1.20;;;;;;;;;;10540267;28;20511;-74
2023/11/11 15:23:04;;;;;;;5.37;1.40;;;;;;;;;;10553912;27;20053;-75
2023/11/11 15:28:09;;;;;;;0.47;0.47;;;;;;;;;;10556053;27;20519;-73
2023/11/11 15:33:12;;;;;;;3.85;1.50;;;;;;;;;;10552283;27;20043;-73
2023/11/11 15:38:23;;;;;;;4.65;1.00;;;;;;;;;;10537097;27;20055;-73
2023/11/11 15:43:28;;;;;;;3.38;1.40;;;;;;;;;;10559148;27;20040;-74
2023/11/11 15:48:34;;;;;;;4.30;1.80;;;;;;;;;;10552645;27;20044;-75
2023/11/11 15:53:46;;;;;;;2.90;1.20;;;;;;;;;;10537102;27;20052;-74
2023/11/11 15:59:07;;;;;;;1.83;1.10;;;;;;;;;;10543419;28;20118;-73
2023/11/11 16:04:15;;;;;;;4.05;1.52;;;;;;;;;;10551309;27;20070;-74
2023/11/11 16:09:23;;;;;;;2.60;1.60;;;;;;;;;;10557378;27;20044;-74
2023/11/11 16:14:27;;;;;;;4.25;1.60;;;;;;;;;;10557506;27;20104;-76
2023/11/11 16:19:39;;;;;;;2.67;1.65;;;;;;;;;;10539625;27;20039;-75
2023/11/11 16:24:47;;;;;;;1.77;1.23;;;;;;;;;;10553924;27;20047;-74
2023/11/11 16:29:54;;;;;;;2.00;1.20;;;;;;;;;;10546230;27;20489;-74
2023/11/11 16:34:59;;;;;;;2.88;1.05;;;;;;;;;;10560564;27;20043;-74
2023/11/11 16:40:14;;;;;;;0.63;0.47;;;;;;;;;;10538131;28;20441;-74
2023/11/11 16:45:17;;;;;;;;;;;;;;;;;;10548066;28;20043;-74
2023/11/11 16:50:25;;;;;;;2.90;1.52;;;;;;;;;;10525868;28;20442;-74
2023/11/11 16:55:31;;;;;;;1.08;0.20;;;;;;;;;;10534660;27;20050;-74
2023/11/11 17:00:36;;;;;;;2.70;1.13;;;;;;;;;;10529137;28;20044;-73
2023/11/11 17:05:49;;;;;;;3.45;1.42;;;;;;;;;;10512323;28;20134;-73
2023/11/11 17:11:00;;;;;;;2.17;1.00;;;;;;;;;;10508536;28;20051;-75
2023/11/11 17:16:11;;;;;;;2.05;1.05;;;;;;;;;;10501060;28;20047;-74
2023/11/11 17:21:42;;;;;;;3.10;1.10;;;;;;;;;;10535560;28;20043;-75
2023/11/11 17:26:49;;;;;;;1.90;1.20;;;;;;;;;;10532076;28;20044;-75
2023/11/11 17:31:52;;;;;;;2.20;1.20;;;;;;;;;;10531475;28;20078;-74
2023/11/11 17:37:00;;;;;;;2.83;1.25;;;;;;;;;;10534978;28;20086;-77
2023/11/11 17:42:08;;;;;;;3.15;1.40;;;;;;;;;;10541132;27;20044;-73
2023/11/11 17:47:16;;;;;;;7.00;1.77;;;;;;;;;;10532893;28;20048;-74
2023/11/11 17:52:21;;;;;;;2.78;1.40;;;;;;;;;;10542874;27;20094;-74
2023/11/11 17:57:35;;;;;;;3.60;1.60;;;;;;;;;;10529560;28;20127;-74
2023/11/11 18:02:40;;;;;;;3.90;1.92;;;;;;;;;;10532706;28;20132;-75
2023/11/11 18:07:47;;;;;;;5.95;1.90;;;;;;;;;;10534203;28;20242;-77
2023/11/11 18:13:03;;;;;;;3.53;1.23;;;;;;;;;;10540855;28;20046;-72
2023/11/11 18:23:28;;;;;;;3.20;1.73;;;;;;;;;;10545588;28;20154;-75
2023/11/11 18:28:37;;;;;;;3.63;1.63;;;;;;;;;;10566412;28;20186;-73
2023/11/11 18:33:41;;;;;;;3.72;2.15;;;;;;;;;;10542217;28;20114;-76
2023/11/11 18:38:47;;;;;;;3.67;1.95;;;;;;;;;;10535458;27;20443;-75
2023/11/11 18:44:11;;;;;;;3.67;1.63;;;;;;;;;;10563002;27;20393;-73
2023/11/11 18:49:19;;;;;;;3.17;1.70;;;;;;;;;;10564276;28;20058;-75
2023/11/11 18:54:21;;;;;;;3.70;1.37;;;;;;;;;;10570362;27;20043;-75
2023/11/11 18:59:31;;;;;;;4.25;1.33;;;;;;;;;;10566383;27;20044;-74
2023/11/11 19:04:38;;;;;;;2.67;1.38;;;;;;;;;;10563646;27;20116;-75
2023/11/11 19:09:50;;;;;;;3.90;1.60;;;;;;;;;;10552819;28;20063;-74
2023/11/11 19:15:20;;;;;;;1.73;1.08;;;;;;;;;;10557020;27;20040;-74
2023/11/11 19:20:30;;;;;;;5.95;1.45;;;;;;;;;;10554571;28;20116;-74
2023/11/11 19:25:41;;;;;;;1.45;0.77;;;;;;;;;;10555477;27;20039;-75
2023/11/11 19:30:47;;;;;;;2.75;1.08;;;;;;;;;;10553556;27;20046;-74
2023/11/11 19:35:56;;;;;;;6.68;2.50;;;;;;;;;;10569215;27;20059;-74
2023/11/11 19:40:59;;;;;;;4.80;1.52;;;;;;;;;;10541357;28;20039;-74
2023/11/11 19:46:04;;;;;;;4.90;2.38;;;;;;;;;;10551712;27;20054;-74
2023/11/11 19:51:30;;;;;;;4.38;2.17;;;;;;;;;;10520416;28;20106;-74
2023/11/11 19:56:37;;;;;;;4.82;2.30;;;;;;;;;;10540841;27;20048;-74
2023/11/11 20:01:41;;;;;;;6.07;1.85;;;;;;;;;;10523212;28;20139;-74
2023/11/11 20:06:48;;;;;;;4.43;2.47;;;;;;;;;;10538903;27;20048;-76
2023/11/11 20:11:52;;;;;;;4.40;1.10;;;;;;;;;;10536152;28;20040;-74
2023/11/11 20:17:03;;;;;;;2.95;1.83;;;;;;;;;;10522661;27;20044;-73
2023/11/11 20:22:12;;;;;;;4.90;2.42;;;;;;;;;;10542706;27;20064;-75
2023/11/11 20:27:25;;;;;;;6.57;2.05;;;;;;;;;;10539910;27;20042;-74
2023/11/11 20:32:32;;;;;;;5.90;2.38;;;;;;;;;;10536389;28;20067;-74
2023/11/11 20:37:47;;;;;;;3.10;2.10;;;;;;;;;;10555269;28;20039;-76
2023/11/11 20:42:56;;;;;;;1.63;1.05;;;;;;;;;;10547285;27;20126;-75
2023/11/11 20:48:07;;;;;;;4.15;2.22;;;;;;;;;;10524697;28;20070;-76
2023/11/11 20:53:34;;;;;;;3.15;1.50;;;;;;;;;;10508437;28;20121;-74
2023/11/11 20:58:47;;;;;;;4.70;2.40;;;;;;;;;;10537256;28;20048;-74
2023/11/11 21:03:54;;;;;;;3.05;1.60;;;;;;;;;;10533730;27;20059;-74
2023/11/11 21:09:03;;;;;;;1.30;1.02;;;;;;;;;;10521654;28;20054;-74
2023/11/11 21:14:09;;;;;;;3.20;1.70;;;;;;;;;;10534597;28;20449;-76
2023/11/11 21:19:18;;;;;;;1.83;1.35;;;;;;;;;;10541168;28;20051;-75
2023/11/11 21:24:25;;;;;;;4.75;1.30;;;;;;;;;;10534460;28;20051;-75
2023/11/11 21:29:44;;;;;;;3.10;1.02;;;;;;;;;;10537158;28;20139;-75
2023/11/11 21:34:48;;;;;;;3.50;1.70;;;;;;;;;;10531893;28;20122;-72
2023/11/11 21:39:52;;;;;;;4.63;1.43;;;;;;;;;;10533974;28;20035;-74
2023/11/11 21:45:07;;;;;;;5.55;2.00;;;;;;;;;;10530554;28;20040;-75
2023/11/11 21:50:11;;;;;;;2.78;1.35;;;;;;;;;;10530107;28;20064;-73
2023/11/11 21:55:18;;;;;;;0.60;0.55;;;;;;;;;;10532336;28;20496;-74
2023/11/11 22:00:37;;;;;;;1.92;0.95;;;;;;;;;;10537064;28;20686;-73
2023/11/11 22:05:45;;;;;;;3.00;1.40;;;;;;;;;;10521179;28;20044;-73
2023/11/11 22:10:57;;;;;;;2.38;1.48;;;;;;;;;;10549051;28;20093;-72
2023/11/11 22:16:07;;;;;;;4.05;1.90;;;;;;;;;;10540548;27;20040;-76
2023/11/11 22:21:17;;;;;;;2.80;1.42;;;;;;;;;;10522128;28;20047;-73
2023/11/11 22:26:21;;;;;;;2.03;1.42;;;;;;;;;;10539382;28;20044;-73
2023/11/11 22:31:29;;;;;;;1.80;0.82;;;;;;;;;;10536585;27;20050;-73
2023/11/11 22:36:36;;;;;;;0.80;0.80;;;;;;;;;;10537036;27;20488;-72
2023/11/11 22:41:43;;;;;;;1.05;0.57;;;;;;;;;;10538481;27;20047;-73
2023/11/11 22:46:51;;;;;;;2.78;1.60;;;;;;;;;;10528579;27;20036;-73
2023/11/11 22:51:57;;;;;;;0.93;0.67;;;;;;;;;;10561534;27;20147;-73
2023/11/11 22:57:00;;;;;;;1.55;1.00;;;;;;;;;;10517490;28;20466;-74
2023/11/11 23:02:15;;;;;;;4.78;1.70;;;;;;;;;;10522348;27;20071;-73
2023/11/11 23:07:26;;;;;;;1.30;0.82;;;;;;;;;;10565821;27;20145;-74
2023/11/11 23:12:32;;;;;;;3.20;1.53;;;;;;;;;;10567756;27;20075;-75
2023/11/11 23:17:38;;;;;;;1.02;0.82;;;;;;;;;;10566024;27;20522;-74
2023/11/11 23:22:48;;;;;;;1.10;0.80;;;;;;;;;;10573301;27;20054;-73
2023/11/11 23:27:56;;;;;;;1.73;0.80;;;;;;;;;;10567980;27;20469;-73
2023/11/11 23:33:05;;;;;;;2.05;1.02;;;;;;;;;;10534512;28;20044;-74
2023/11/11 23:38:17;;;;;;;1.35;0.85;;;;;;;;;;10558531;27;20048;-72
2023/11/11 23:43:24;;;;;;;2.63;1.45;;;;;;;;;;10563914;27;20093;-74
2023/11/11 23:48:39;;;;;;;1.55;0.98;;;;;;;;;;10562178;27;20039;-73
2023/11/11 23:53:43;;;;;;;1.65;1.23;;;;;;;;;;10556526;27;20588;-73
2023/11/11 23:58:51;;;;;;;3.28;1.50;;;;;;;;;;10556827;28;20043;-73
